createdAt,value
2022-12-19T00:01:14.376Z,29.08
2022-12-19T00:06:18.456Z,30.83
2022-12-19T00:11:21.533Z,28.67
2022-12-19T00:16:25.771Z,31.55
2022-12-19T00:26:33.176Z,31.40
2022-12-19T00:31:36.362Z,33.40
2022-12-19T00:36:39.417Z,30.85
2022-12-19T00:41:42.659Z,33.17
2022-12-19T00:46:47.412Z,29.85
2022-12-19T00:51:55.899Z,30.58
2022-12-19T00:56:57.535Z,32.58
2022-12-19T01:01:59.287Z,33.53
2022-12-19T01:07:03.288Z,30.08
2022-12-19T01:12:06.381Z,31.87
2022-12-19T01:17:08.059Z,30.90
2022-12-19T01:22:11.413Z,32.75
2022-12-19T01:27:13.101Z,30.75
2022-12-19T01:32:14.718Z,31.00
2022-12-19T01:37:17.775Z,31.83
2022-12-19T01:42:23.370Z,34.38
2022-12-19T01:47:25.639Z,35.30
2022-12-19T01:52:29.271Z,35.20
2022-12-19T01:57:30.897Z,33.27
2022-12-19T02:02:38.091Z,32.00
2022-12-19T02:07:43.233Z,33.58
2022-12-19T02:12:46.015Z,34.83
2022-12-19T02:18:01.756Z,35.13
2022-12-19T02:23:21.907Z,35.05
2022-12-19T02:28:42.740Z,33.63
2022-12-19T02:33:55.365Z,32.40
2022-12-19T02:39:00.960Z,32.73
2022-12-19T02:44:03.372Z,32.00
2022-12-19T02:49:06.947Z,30.58
2022-12-19T02:54:10.106Z,35.30
2022-12-19T02:59:27.677Z,36.38
2022-12-19T03:04:44.147Z,32.15
2022-12-19T03:09:54.833Z,32.42
2022-12-19T03:14:58.783Z,32.40
2022-12-19T03:20:05.169Z,34.20
2022-12-19T03:25:07.665Z,32.90
2022-12-19T03:30:13.302Z,33.15
2022-12-19T03:35:20.700Z,33.53
2022-12-19T03:40:25.453Z,32.85
2022-12-19T03:45:33.536Z,32.03
2022-12-19T03:50:46.583Z,34.47
2022-12-19T03:55:54.484Z,32.03
2022-12-19T04:00:57.145Z,35.40
2022-12-19T04:06:01.761Z,33.22
2022-12-19T04:11:07.264Z,33.78
2022-12-19T04:16:16.625Z,34.70
2022-12-19T04:21:25.695Z,33.83
2022-12-19T04:26:28.357Z,35.70
2022-12-19T04:31:31.214Z,32.15
2022-12-19T04:36:34.404Z,33.00
2022-12-19T04:41:36.137Z,32.15
2022-12-19T04:46:37.861Z,31.17
2022-12-19T04:51:41.007Z,34.10
2022-12-19T04:56:42.737Z,31.40
2022-12-19T05:01:44.635Z,31.92
2022-12-19T05:06:47.913Z,33.92
2022-12-19T05:11:49.659Z,34.05
2022-12-19T05:16:54.764Z,34.30
2022-12-19T05:22:00.330Z,34.40
2022-12-19T05:27:02.596Z,32.30
2022-12-19T05:32:05.168Z,33.20
2022-12-19T05:37:08.282Z,34.38
2022-12-19T05:42:12.505Z,33.17
2022-12-19T05:52:17.417Z,33.65
2022-12-19T05:57:19.102Z,33.40
2022-12-19T06:02:23.924Z,33.40
2022-12-19T06:07:30.279Z,33.00
2022-12-19T06:12:32.007Z,34.40
2022-12-19T06:17:33.719Z,33.00
2022-12-19T06:22:36.786Z,32.22
2022-12-19T06:27:38.471Z,34.55
2022-12-19T06:32:40.196Z,35.58
2022-12-19T06:37:43.294Z,33.38
2022-12-19T06:42:47.726Z,33.50
2022-12-19T06:52:52.305Z,31.42
2022-12-19T06:57:54.244Z,35.05
2022-12-19T07:02:57.477Z,34.55
2022-12-19T07:08:03.540Z,34.75
2022-12-19T07:13:05.253Z,35.15
2022-12-19T07:18:09.283Z,35.47
2022-12-19T07:23:17.111Z,34.47
2022-12-19T07:28:18.885Z,34.20
2022-12-19T07:33:21.972Z,36.58
2022-12-19T07:38:25.257Z,36.58
2022-12-19T07:43:26.989Z,36.97
2022-12-19T07:48:30.711Z,38.67
2022-12-19T07:53:33.748Z,39.17
2022-12-19T07:58:35.415Z,37.65
2022-12-19T08:03:37.090Z,35.85
2022-12-19T08:08:42.877Z,35.30
2022-12-19T08:13:47.035Z,34.85
2022-12-19T08:18:48.998Z,36.70
2022-12-19T08:23:52.125Z,33.00
2022-12-19T08:28:55.372Z,32.72
2022-12-19T08:33:57.527Z,34.58
2022-12-19T08:39:00.629Z,36.85
2022-12-19T08:44:02.464Z,36.30
2022-12-19T08:49:04.186Z,36.83
2022-12-19T08:54:07.923Z,38.85
2022-12-19T08:59:13.573Z,38.80
2022-12-19T09:05:58.412Z,36.95
2022-12-19T09:09:40.692Z,39.42
2022-12-19T09:14:42.490Z,36.13
2022-12-19T09:19:45.890Z,36.10
2022-12-19T09:24:51.259Z,37.95
2022-12-19T09:29:53.172Z,40.20
2022-12-19T09:34:54.926Z,37.22
2022-12-19T09:39:59.215Z,38.42
2022-12-19T09:45:31.785Z,39.22
2022-12-19T09:50:44.846Z,39.88
2022-12-19T09:55:49.277Z,39.45
2022-12-19T10:00:59.731Z,38.85
2022-12-19T10:07:14.555Z,40.40
2022-12-19T10:12:45.624Z,38.45
2022-12-19T10:17:24.624Z,39.10
2022-12-19T10:22:37.664Z,39.67
2022-12-19T10:27:59.741Z,36.08
2022-12-19T10:33:20.636Z,36.08
2022-12-19T10:38:29.162Z,39.38
2022-12-19T10:43:44.759Z,40.42
2022-12-19T10:48:53.417Z,37.70
2022-12-19T10:53:57.080Z,42.15
2022-12-19T10:59:00.591Z,30.07
2022-12-19T11:04:29.523Z,41.33
2022-12-19T11:10:08.836Z,43.40
2022-12-19T11:20:39.513Z,40.80
2022-12-19T11:29:33.380Z,41.58
2022-12-19T11:29:34.223Z,40.47
2022-12-19T11:33:16.464Z,40.70
2022-12-19T11:38:35.552Z,39.67
2022-12-19T11:43:56.435Z,41.20
2022-12-19T11:49:05.544Z,39.40
2022-12-19T11:54:15.955Z,38.60
2022-12-19T11:59:20.360Z,37.45
2022-12-19T12:04:54.735Z,37.53
2022-12-19T12:15:14.461Z,37.53
2022-12-19T12:28:57.218Z,37.13
2022-12-19T12:31:21.282Z,36.78
2022-12-19T12:31:42.778Z,36.05
2022-12-19T12:35:30.230Z,38.42
2022-12-19T12:38:22.542Z,37.73
2022-12-19T12:43:27.235Z,39.10
2022-12-19T12:48:34.196Z,40.42
2022-12-19T12:53:40.378Z,37.58
2022-12-19T12:58:43.357Z,42.25
2022-12-19T13:03:54.887Z,41.47
2022-12-19T13:09:04.332Z,39.08
2022-12-19T13:14:26.644Z,41.22
2022-12-19T13:19:31.439Z,43.03
2022-12-19T13:24:38.856Z,41.60
2022-12-19T13:29:56.119Z,41.37
2022-12-19T13:36:06.414Z,42.70
2022-12-19T13:46:53.055Z,41.33
2022-12-19T13:57:51.095Z,38.05
2022-12-19T14:03:05.038Z,39.55
2022-12-19T14:14:06.382Z,39.85
2022-12-19T14:19:22.410Z,35.22
2022-12-19T14:24:24.450Z,38.92
2022-12-19T14:30:28.681Z,40.80
2022-12-19T14:36:08.790Z,36.67
2022-12-19T14:40:22.609Z,35.75
2022-12-19T14:53:52.475Z,38.78
2022-12-19T14:54:10.929Z,35.60
2022-12-19T14:57:00.562Z,34.58
2022-12-19T15:02:16.313Z,38.35
2022-12-19T15:07:32.215Z,37.05
2022-12-19T15:14:51.166Z,33.17
2022-12-19T15:18:22.770Z,33.35
2022-12-19T15:23:24.802Z,30.73
2022-12-19T15:28:34.132Z,32.50
2022-12-19T15:33:48.095Z,33.65
2022-12-19T15:38:59.148Z,35.17
2022-12-19T15:44:08.410Z,37.15
2022-12-19T15:49:14.650Z,40.22
2022-12-19T15:59:44.018Z,36.58
2022-12-19T16:04:49.608Z,40.67
2022-12-19T16:09:52.013Z,34.40
2022-12-19T16:14:57.173Z,31.42
2022-12-19T16:20:00.313Z,37.22
2022-12-19T16:25:01.981Z,37.17
2022-12-19T16:30:18.677Z,38.42
2022-12-19T16:35:54.953Z,39.60
2022-12-19T16:40:47.999Z,37.25
2022-12-19T16:45:49.848Z,36.85
2022-12-19T16:50:53.493Z,38.47
2022-12-19T16:55:56.343Z,37.27
2022-12-19T17:00:58.208Z,39.67
2022-12-19T17:06:01.471Z,42.25
2022-12-19T17:11:03.391Z,38.05
2022-12-19T17:16:05.659Z,38.13
2022-12-19T17:21:14.510Z,40.17
2022-12-19T17:26:18.183Z,34.58
2022-12-19T17:31:23.200Z,38.50
2022-12-19T17:36:36.615Z,39.17
2022-12-19T17:41:39.079Z,35.20
2022-12-19T17:46:40.918Z,36.17
2022-12-19T17:51:46.701Z,37.78
2022-12-19T17:56:49.742Z,38.55
2022-12-19T18:01:51.714Z,41.05
2022-12-19T18:06:54.887Z,35.33
2022-12-19T18:11:56.647Z,38.67
2022-12-19T18:16:59.580Z,39.65
2022-12-19T18:22:02.715Z,40.60
2022-12-19T18:27:04.521Z,35.03
2022-12-19T18:32:06.327Z,34.90
2022-12-19T18:37:13.219Z,36.80
2022-12-19T18:42:20.934Z,38.78
2022-12-19T18:47:23.907Z,41.60
2022-12-19T18:52:27.012Z,42.13
2022-12-19T18:57:28.686Z,37.20
2022-12-19T19:02:30.656Z,36.65
2022-12-19T19:07:34.057Z,39.33
2022-12-19T19:12:35.838Z,43.30
2022-12-19T19:17:37.911Z,45.75
2022-12-19T19:22:41.698Z,40.85
2022-12-19T19:27:46.147Z,38.72
2022-12-19T19:32:51.694Z,40.12
2022-12-19T19:37:59.466Z,38.33
2022-12-19T19:43:01.352Z,40.15
2022-12-19T19:48:03.918Z,42.05
2022-12-19T19:53:07.090Z,38.45
2022-12-19T19:58:08.870Z,39.03
2022-12-19T20:03:12.968Z,40.70
2022-12-19T20:08:19.962Z,39.35
2022-12-19T20:13:21.795Z,39.35
2022-12-19T20:18:23.473Z,38.03
2022-12-19T20:23:26.637Z,40.22
2022-12-19T20:28:28.662Z,41.83
2022-12-19T20:33:30.424Z,36.70
2022-12-19T20:38:33.572Z,35.88
2022-12-19T20:43:35.748Z,36.97
2022-12-19T20:48:38.285Z,39.42
2022-12-19T20:53:41.802Z,42.15
2022-12-19T20:58:43.873Z,42.97
2022-12-19T21:03:46.646Z,43.38
2022-12-19T21:08:51.874Z,42.92
2022-12-19T21:13:53.679Z,41.25
2022-12-19T21:18:55.387Z,40.65
2022-12-19T21:24:02.968Z,38.40
2022-12-19T21:29:04.771Z,38.80
2022-12-19T21:34:06.935Z,40.15
2022-12-19T21:39:10.632Z,42.78
2022-12-19T21:44:12.323Z,41.03
2022-12-19T21:49:17.303Z,42.00
2022-12-19T21:59:38.962Z,39.55
2022-12-19T22:04:42.845Z,39.97
2022-12-19T22:09:46.047Z,42.03
2022-12-19T22:14:47.917Z,38.67
2022-12-19T22:19:49.679Z,39.97
2022-12-19T22:24:52.812Z,41.60
2022-12-19T22:29:56.805Z,47.08
2022-12-19T22:34:58.706Z,45.38
2022-12-19T22:40:01.884Z,40.70
2022-12-19T22:45:03.859Z,44.58
2022-12-19T22:50:07.003Z,41.45
2022-12-19T22:55:10.540Z,40.70
2022-12-19T23:00:14.055Z,39.38
2022-12-19T23:05:15.830Z,41.95
2022-12-19T23:10:19.272Z,38.15
2022-12-19T23:15:21.227Z,37.78
2022-12-19T23:20:28.388Z,42.35
2022-12-19T23:25:31.590Z,42.42
2022-12-19T23:30:47.544Z,46.40
2022-12-19T23:35:49.475Z,44.22
2022-12-19T23:40:52.620Z,44.95
2022-12-19T23:45:54.617Z,40.53
2022-12-19T23:51:00.342Z,43.42
2022-12-19T23:56:05.898Z,47.60
